createdAt,value
2022-12-12T03:59:16.778Z,18.30
2022-12-12T04:00:16.897Z,17.80
2022-12-12T04:01:17.134Z,18.50
2022-12-12T04:02:17.209Z,17.60
2022-12-12T04:03:17.289Z,19.80
2022-12-12T04:04:17.406Z,16.70
2022-12-12T04:05:17.528Z,18.10
2022-12-12T04:06:17.615Z,18.30
2022-12-12T04:07:17.785Z,16.70
2022-12-12T04:08:17.976Z,16.40
2022-12-12T04:09:18.064Z,17.80
2022-12-12T04:10:18.185Z,18.10
2022-12-12T04:11:18.294Z,17.00
2022-12-12T04:12:18.404Z,17.50
2022-12-12T04:13:18.517Z,17.60
2022-12-12T04:14:18.678Z,16.70
2022-12-12T04:15:18.781Z,17.70
2022-12-12T04:16:19.029Z,17.30
2022-12-12T04:17:19.098Z,17.70
2022-12-12T04:18:19.227Z,16.90
2022-12-12T04:19:19.323Z,17.80
2022-12-12T04:20:19.483Z,16.40
2022-12-12T04:21:19.558Z,17.20
2022-12-12T04:22:22.283Z,16.90
2022-12-12T04:23:20.822Z,17.10
2022-12-12T04:24:19.951Z,16.90
2022-12-12T04:25:20.096Z,17.70
2022-12-12T04:26:20.262Z,16.80
2022-12-12T04:27:20.386Z,15.40
2022-12-12T04:28:20.521Z,16.80
2022-12-12T04:29:21.610Z,16.70
2022-12-12T04:30:21.797Z,17.00
2022-12-12T04:31:20.961Z,15.70
2022-12-12T04:32:21.051Z,17.30
2022-12-12T04:33:21.164Z,16.90
2022-12-12T04:34:21.252Z,16.30
2022-12-12T04:35:21.429Z,17.30
2022-12-12T04:36:21.519Z,16.90
2022-12-12T04:37:21.660Z,17.50
2022-12-12T04:38:21.832Z,16.30
2022-12-12T04:39:21.950Z,16.40
2022-12-12T04:40:22.102Z,17.00
2022-12-12T04:41:22.251Z,16.50
2022-12-12T04:42:22.409Z,17.70
2022-12-12T04:43:22.502Z,16.20
2022-12-12T04:44:22.659Z,16.40
2022-12-12T04:45:22.809Z,17.80
2022-12-12T04:46:22.947Z,16.60
2022-12-12T04:47:23.108Z,18.20
2022-12-12T04:48:23.241Z,17.10
2022-12-12T04:49:23.377Z,16.80
2022-12-12T04:50:23.525Z,16.30
2022-12-12T04:51:23.667Z,16.40
2022-12-12T04:52:23.839Z,16.80
2022-12-12T04:53:23.918Z,16.40
2022-12-12T04:54:24.078Z,16.10
2022-12-12T04:55:24.207Z,16.00
2022-12-12T04:56:24.376Z,16.80
2022-12-12T04:57:24.486Z,16.70
2022-12-12T04:58:24.582Z,17.10
2022-12-12T04:59:24.715Z,17.80
2022-12-12T05:00:24.898Z,16.60
2022-12-12T05:01:25.118Z,15.60
2022-12-12T05:02:25.268Z,16.50
2022-12-12T05:03:25.331Z,16.70
2022-12-12T05:04:25.504Z,16.10
2022-12-12T05:05:25.605Z,17.90
2022-12-12T05:06:25.745Z,16.00
2022-12-12T05:07:25.926Z,16.70
2022-12-12T05:08:26.061Z,16.20
2022-12-12T05:09:26.134Z,16.50
2022-12-12T05:10:26.317Z,16.70
2022-12-12T05:11:26.414Z,16.80
2022-12-12T05:12:26.494Z,15.90
2022-12-12T05:13:26.643Z,16.70
2022-12-12T05:14:26.814Z,16.00
2022-12-12T05:15:26.953Z,16.10
2022-12-12T05:16:27.061Z,15.90
2022-12-12T05:17:27.132Z,15.30
2022-12-12T05:18:27.343Z,16.60
2022-12-12T05:19:27.422Z,15.40
2022-12-12T05:20:27.579Z,17.30
2022-12-12T05:21:27.726Z,14.70
2022-12-12T05:22:27.862Z,16.10
2022-12-12T05:23:34.373Z,16.40
2022-12-12T05:24:29.141Z,16.40
2022-12-12T05:25:28.320Z,15.90
2022-12-12T05:26:28.461Z,17.00
2022-12-12T05:27:28.628Z,16.00
2022-12-12T05:28:28.767Z,15.90
2022-12-12T05:29:28.924Z,15.90
2022-12-12T05:30:29.088Z,15.80
2022-12-12T05:31:29.141Z,16.30
2022-12-12T05:32:29.352Z,16.70
2022-12-12T05:33:29.443Z,14.50
2022-12-12T05:34:29.595Z,15.10
2022-12-12T05:35:29.726Z,15.10
2022-12-12T05:36:29.870Z,16.90
2022-12-12T05:37:30.060Z,15.40
2022-12-12T05:38:30.149Z,15.70
2022-12-12T05:39:30.320Z,15.10
2022-12-12T05:40:30.489Z,14.70
2022-12-12T05:41:30.655Z,16.00
2022-12-12T05:42:30.771Z,14.60
2022-12-12T05:43:30.930Z,15.70
2022-12-12T05:44:31.078Z,15.20
2022-12-12T05:45:31.228Z,15.80
2022-12-12T05:46:31.412Z,14.80
2022-12-12T05:47:31.509Z,14.60
2022-12-12T05:48:31.698Z,15.90
2022-12-12T05:49:32.750Z,15.60
2022-12-12T05:50:31.908Z,16.10
2022-12-12T05:51:32.051Z,16.20
2022-12-12T05:52:32.208Z,15.60
2022-12-12T05:53:34.369Z,15.80
2022-12-12T05:54:33.451Z,15.20
2022-12-12T05:55:32.556Z,16.10
2022-12-12T05:56:32.722Z,17.30
2022-12-12T05:57:32.895Z,15.20
2022-12-12T05:58:32.975Z,15.20
2022-12-12T05:59:33.161Z,15.60
2022-12-12T06:00:33.289Z,15.20
2022-12-12T06:01:33.477Z,15.10
2022-12-12T06:02:33.611Z,15.90
2022-12-12T06:03:33.739Z,15.50
2022-12-12T06:04:33.905Z,16.00
2022-12-12T06:05:35.004Z,16.50
2022-12-12T06:06:34.184Z,14.90
2022-12-12T06:07:34.347Z,16.40
2022-12-12T06:08:34.485Z,15.50
2022-12-12T06:09:34.586Z,15.20
2022-12-12T06:10:35.646Z,15.70
2022-12-12T06:11:35.783Z,17.30
2022-12-12T06:12:34.965Z,15.80
2022-12-12T06:13:35.146Z,16.40
2022-12-12T06:14:35.313Z,16.10
2022-12-12T06:15:35.467Z,14.90
2022-12-12T06:16:35.520Z,16.20
2022-12-12T06:17:35.584Z,16.00
2022-12-12T06:18:35.763Z,16.10
2022-12-12T06:19:35.904Z,15.60
2022-12-12T06:20:36.000Z,15.40
2022-12-12T06:21:36.153Z,16.20
2022-12-12T06:22:36.346Z,15.60
2022-12-12T06:23:36.475Z,16.10
2022-12-12T06:24:36.582Z,15.10
2022-12-12T06:25:36.692Z,15.90
2022-12-12T06:26:36.806Z,16.40
2022-12-12T06:27:36.891Z,15.90
2022-12-12T06:28:37.081Z,15.40
2022-12-12T06:29:38.137Z,16.40
2022-12-12T06:30:37.370Z,16.20
2022-12-12T06:31:37.539Z,15.40
2022-12-12T06:32:37.619Z,15.60
2022-12-12T06:33:37.734Z,17.10
2022-12-12T06:34:37.903Z,15.40
2022-12-12T06:35:38.015Z,16.10
2022-12-12T06:36:38.146Z,16.50
2022-12-12T06:37:38.260Z,17.70
2022-12-12T06:38:38.369Z,17.60
2022-12-12T06:39:38.469Z,16.90
2022-12-12T06:40:38.631Z,17.50
2022-12-12T06:41:38.832Z,16.50
2022-12-12T06:42:42.009Z,16.40
2022-12-12T06:43:40.076Z,17.70
2022-12-12T06:44:39.368Z,17.10
2022-12-12T06:45:39.329Z,17.00
2022-12-12T06:46:39.456Z,16.90
2022-12-12T06:47:39.548Z,17.80
2022-12-12T06:48:39.858Z,17.10
2022-12-12T06:49:39.809Z,17.10
2022-12-12T06:50:39.918Z,18.00
2022-12-12T06:51:40.165Z,18.80
2022-12-12T06:52:40.257Z,16.80
2022-12-12T06:53:42.377Z,17.80
2022-12-12T06:54:40.968Z,17.10
2022-12-12T06:55:40.630Z,17.30
2022-12-12T06:56:46.280Z,17.10
2022-12-12T06:57:42.314Z,16.50
2022-12-12T06:58:41.051Z,17.10
2022-12-12T06:59:41.288Z,18.30
2022-12-12T07:00:42.026Z,17.10
2022-12-12T07:01:42.499Z,18.00
2022-12-12T07:02:42.125Z,18.10
2022-12-12T07:03:42.030Z,17.30
2022-12-12T07:04:42.015Z,18.40
2022-12-12T07:05:42.050Z,17.30
2022-12-12T07:06:42.137Z,19.00
2022-12-12T07:07:42.268Z,18.80
2022-12-12T07:08:43.404Z,17.40
2022-12-12T07:09:42.515Z,18.60
2022-12-12T07:10:42.823Z,16.80
2022-12-12T07:11:42.795Z,17.90
2022-12-12T07:12:46.639Z,16.90
2022-12-12T07:13:43.433Z,17.70
2022-12-12T07:14:44.033Z,17.70
2022-12-12T07:15:43.423Z,17.90
2022-12-12T07:16:43.453Z,17.10
2022-12-12T07:17:43.847Z,17.90
2022-12-12T07:18:43.824Z,17.50
2022-12-12T07:19:43.897Z,17.30
2022-12-12T07:20:44.014Z,16.30
2022-12-12T07:21:44.203Z,17.10
2022-12-12T07:22:44.303Z,17.10
2022-12-12T07:23:44.432Z,18.10
2022-12-12T07:24:44.512Z,15.80
2022-12-12T07:25:44.734Z,17.10
2022-12-12T07:26:44.813Z,17.20
2022-12-12T07:27:45.082Z,17.80
2022-12-12T07:28:45.159Z,17.00
2022-12-12T07:29:45.213Z,17.70
2022-12-12T07:30:45.358Z,17.00
2022-12-12T07:31:45.451Z,17.40
2022-12-12T07:32:45.608Z,17.20
2022-12-12T07:33:45.761Z,16.70
2022-12-12T07:34:45.858Z,17.40
2022-12-12T07:35:45.901Z,17.70
2022-12-12T07:36:46.034Z,17.10
2022-12-12T07:37:46.165Z,16.90
2022-12-12T07:38:46.329Z,16.90
2022-12-12T07:39:46.423Z,16.20
2022-12-12T07:40:46.604Z,16.40
2022-12-12T07:41:47.814Z,18.10
2022-12-12T07:42:46.792Z,17.90
2022-12-12T07:43:46.968Z,17.50
2022-12-12T07:44:48.180Z,18.10
2022-12-12T07:45:48.118Z,16.40
2022-12-12T07:46:47.390Z,17.20
2022-12-12T07:47:47.722Z,16.00
2022-12-12T07:48:48.558Z,17.10
2022-12-12T07:49:47.759Z,16.40
2022-12-12T07:50:47.908Z,16.00
2022-12-12T07:51:49.448Z,17.10
2022-12-12T07:52:48.848Z,16.10
2022-12-12T07:53:48.281Z,16.60
2022-12-12T07:54:48.377Z,17.50
2022-12-12T07:55:48.469Z,17.50
2022-12-12T07:56:48.708Z,16.70
2022-12-12T07:57:48.708Z,15.20
2022-12-12T07:58:48.889Z,17.20
2022-12-12T07:59:48.989Z,16.50
2022-12-12T08:00:49.348Z,17.30
2022-12-12T08:01:49.320Z,15.90
2022-12-12T08:02:50.954Z,17.40
2022-12-12T08:03:50.485Z,16.80
2022-12-12T08:04:50.914Z,17.20
2022-12-12T08:05:50.045Z,17.60
2022-12-12T08:06:52.733Z,18.30
2022-12-12T08:07:51.046Z,18.20
2022-12-12T08:08:50.190Z,17.90
2022-12-12T08:09:50.266Z,18.10
2022-12-12T08:10:50.334Z,17.80
2022-12-12T08:11:51.423Z,17.70
2022-12-12T08:12:50.606Z,17.90
2022-12-12T08:13:50.705Z,18.00
2022-12-12T08:14:51.641Z,16.70
2022-12-12T08:15:51.861Z,17.50
2022-12-12T08:16:51.940Z,18.50
2022-12-12T08:17:53.360Z,19.40
2022-12-12T08:18:51.785Z,18.00
2022-12-12T08:19:51.505Z,16.80
2022-12-12T08:20:51.635Z,16.90
2022-12-12T08:21:51.776Z,18.00
2022-12-12T08:22:52.794Z,17.90
2022-12-12T08:23:52.054Z,16.00
2022-12-12T08:24:53.194Z,18.20
2022-12-12T08:25:56.352Z,17.30
2022-12-12T08:26:52.482Z,17.80
2022-12-12T08:27:53.523Z,17.50
2022-12-12T08:28:53.664Z,17.60
2022-12-12T08:29:53.131Z,18.60
2022-12-12T08:30:54.179Z,17.90
2022-12-12T08:31:54.145Z,17.30
2022-12-12T08:32:54.811Z,16.60
2022-12-12T08:33:53.589Z,17.80
2022-12-12T08:34:54.846Z,17.30
2022-12-12T08:35:53.593Z,17.30
2022-12-12T08:36:53.691Z,17.50
2022-12-12T08:37:54.521Z,16.60
2022-12-12T08:38:55.037Z,18.00
2022-12-12T08:39:59.792Z,17.40
2022-12-12T08:40:54.178Z,18.40
2022-12-12T08:41:55.260Z,18.30
2022-12-12T08:42:58.240Z,16.10
2022-12-12T08:43:58.321Z,17.70
2022-12-12T08:44:54.852Z,19.00
2022-12-12T08:45:55.878Z,17.80
2022-12-12T08:46:57.855Z,16.80
2022-12-12T08:47:55.149Z,17.90
2022-12-12T08:48:56.560Z,16.50
2022-12-12T08:49:55.377Z,17.50
2022-12-12T08:50:55.486Z,18.80
2022-12-12T08:51:56.602Z,17.30
2022-12-12T08:53:00.879Z,17.00
2022-12-12T08:53:55.811Z,17.70
2022-12-12T08:54:56.012Z,16.80
2022-12-12T08:55:56.207Z,17.70
2022-12-12T08:57:07.956Z,17.40
2022-12-12T08:57:56.387Z,16.80
2022-12-12T08:58:57.600Z,16.90
2022-12-12T08:59:56.629Z,16.20
2022-12-12T09:00:56.761Z,18.50
2022-12-12T09:01:56.918Z,15.90
2022-12-12T09:02:57.105Z,17.60
2022-12-12T09:03:57.351Z,17.40
2022-12-12T09:04:57.221Z,17.50
2022-12-12T09:05:57.587Z,18.00
2022-12-12T09:07:02.395Z,17.30
2022-12-12T09:07:58.647Z,18.40
2022-12-12T09:09:01.291Z,18.90
2022-12-12T09:10:21.416Z,17.10
2022-12-12T09:10:58.078Z,18.80
2022-12-12T09:11:59.178Z,16.50
2022-12-12T09:12:58.343Z,17.10
2022-12-12T09:13:58.440Z,17.20
2022-12-12T09:14:59.525Z,17.50
2022-12-12T09:15:59.255Z,18.30
2022-12-12T09:16:58.848Z,16.90
2022-12-12T09:17:58.966Z,17.40
2022-12-12T09:18:59.148Z,17.20
2022-12-12T09:19:59.214Z,17.40
2022-12-12T09:21:03.593Z,16.70
2022-12-12T09:21:59.600Z,15.30
2022-12-12T09:22:59.624Z,17.00
2022-12-12T09:23:59.782Z,18.30
2022-12-12T09:25:00.898Z,16.60
2022-12-12T09:26:00.067Z,16.20
2022-12-12T09:27:00.232Z,16.50
2022-12-12T09:28:00.353Z,16.60
2022-12-12T09:29:00.479Z,16.50
2022-12-12T09:30:00.814Z,15.50
2022-12-12T09:31:02.281Z,17.00
2022-12-12T09:32:00.928Z,17.80
2022-12-12T09:33:01.940Z,16.20
2022-12-12T09:34:01.093Z,16.60
2022-12-12T09:35:01.335Z,16.40
2022-12-12T09:36:02.458Z,15.60
2022-12-12T09:37:01.587Z,17.90
2022-12-12T09:38:01.904Z,15.80
2022-12-12T09:39:01.986Z,16.50
2022-12-12T09:40:01.922Z,16.40
2022-12-12T09:41:03.057Z,15.90
2022-12-12T09:42:02.320Z,18.00
2022-12-12T09:43:02.380Z,17.20
2022-12-12T09:44:04.006Z,16.50
2022-12-12T09:45:03.979Z,16.80
2022-12-12T09:46:03.648Z,16.80
2022-12-12T09:47:02.912Z,17.40
2022-12-12T09:48:02.939Z,15.90
2022-12-12T09:49:05.706Z,17.80
2022-12-12T09:50:05.912Z,16.10
2022-12-12T09:51:07.242Z,16.60
2022-12-12T09:52:03.425Z,17.50
2022-12-12T09:53:03.470Z,15.80
2022-12-12T09:54:03.651Z,17.00
2022-12-12T09:55:07.740Z,19.30
2022-12-12T09:56:04.247Z,17.20
2022-12-12T09:57:10.778Z,16.70
2022-12-12T09:58:04.121Z,18.80
2022-12-12T09:59:04.320Z,17.90
2022-12-12T10:00:04.416Z,17.30
2022-12-12T10:01:06.335Z,16.70
2022-12-12T10:02:04.756Z,16.80
2022-12-12T10:13:34.294Z,22.30
2022-12-12T10:14:34.433Z,18.60
2022-12-12T10:15:36.423Z,17.70
2022-12-12T10:16:34.716Z,18.50
2022-12-12T10:17:34.712Z,18.70
2022-12-12T10:18:39.449Z,18.60
2022-12-12T10:19:34.974Z,16.50
2022-12-12T10:20:35.130Z,18.50
2022-12-12T10:21:35.270Z,19.50
2022-12-12T10:22:36.300Z,16.60
2022-12-12T10:23:36.420Z,18.90
2022-12-12T10:24:35.671Z,16.50
2022-12-12T10:25:44.555Z,16.90
2022-12-12T10:26:36.598Z,17.00
2022-12-12T10:27:36.650Z,18.30
2022-12-12T10:28:39.030Z,17.00
2022-12-12T10:29:41.556Z,16.60
2022-12-12T10:30:36.709Z,17.30
2022-12-12T10:31:36.608Z,16.80
2022-12-12T10:32:43.893Z,16.50
2022-12-12T10:33:38.717Z,16.20
2022-12-12T10:34:36.865Z,16.40
2022-12-12T10:35:37.009Z,14.80
2022-12-12T10:36:39.710Z,16.70
2022-12-12T10:37:37.248Z,17.40
2022-12-12T10:38:38.338Z,15.80
2022-12-12T10:39:37.488Z,16.40
2022-12-12T10:40:41.555Z,17.20
2022-12-12T10:41:37.649Z,16.60
2022-12-12T10:42:37.922Z,16.90
2022-12-12T10:43:38.002Z,16.40
2022-12-12T10:44:42.868Z,17.00
2022-12-12T10:45:39.409Z,16.40
2022-12-12T10:46:40.853Z,16.90
2022-12-12T10:47:38.719Z,18.00
2022-12-12T10:48:38.685Z,16.70
2022-12-12T10:49:39.792Z,17.30
2022-12-12T10:50:38.826Z,17.00
2022-12-12T10:51:39.947Z,15.60
2022-12-12T10:52:40.059Z,16.30
2022-12-12T10:53:39.206Z,16.00
2022-12-12T10:54:39.307Z,16.00
2022-12-12T10:55:40.455Z,15.70
2022-12-12T10:56:39.598Z,16.10
2022-12-12T10:57:39.823Z,18.30
2022-12-12T10:58:39.941Z,17.40
2022-12-12T10:59:40.825Z,18.20
2022-12-12T11:00:40.754Z,17.00
2022-12-12T11:02:41.467Z,16.60
2022-12-12T11:03:40.385Z,16.80
2022-12-12T11:04:42.319Z,17.70
2022-12-12T11:05:41.652Z,16.10
2022-12-12T11:06:40.704Z,15.80
2022-12-12T11:07:40.913Z,16.90
2022-12-12T11:08:40.933Z,16.60
2022-12-12T11:09:41.106Z,16.20
2022-12-12T11:10:42.333Z,16.00
2022-12-12T11:11:41.550Z,16.80
2022-12-12T11:12:41.615Z,16.70
2022-12-12T11:13:41.603Z,16.80
2022-12-12T11:14:41.888Z,16.10
2022-12-12T11:15:42.979Z,16.00
2022-12-12T11:16:42.172Z,16.90
2022-12-12T11:17:42.262Z,16.80
2022-12-12T11:18:42.563Z,16.70
2022-12-12T11:19:43.521Z,15.10
2022-12-12T11:20:43.652Z,16.70
2022-12-12T11:21:43.668Z,15.50
2022-12-12T11:22:42.898Z,14.90
2022-12-12T11:23:43.067Z,16.40
2022-12-12T11:24:44.080Z,15.30
2022-12-12T11:25:43.561Z,16.30
2022-12-12T11:26:43.678Z,15.10
2022-12-12T11:27:43.598Z,16.40
2022-12-12T11:28:43.741Z,15.20
2022-12-12T11:29:44.059Z,15.00
2022-12-12T11:30:44.930Z,16.10
2022-12-12T11:31:44.181Z,16.00
2022-12-12T11:32:44.274Z,15.30
2022-12-12T11:33:46.367Z,14.60
2022-12-12T11:34:44.504Z,15.50
2022-12-12T11:35:47.709Z,15.20
2022-12-12T11:36:44.772Z,15.10
2022-12-12T11:37:47.428Z,15.50
2022-12-12T11:38:45.262Z,15.60
2022-12-12T11:39:46.859Z,15.60
2022-12-12T11:40:45.116Z,15.40
2022-12-12T11:41:47.179Z,15.90
2022-12-12T11:42:45.509Z,16.00
2022-12-12T11:43:45.541Z,14.50
2022-12-12T11:44:54.423Z,17.20
2022-12-12T11:45:46.631Z,15.30
2022-12-12T11:46:45.919Z,16.30
2022-12-12T11:47:47.001Z,17.30
2022-12-12T11:48:47.667Z,15.50
2022-12-12T11:49:49.388Z,15.20
2022-12-12T11:50:48.002Z,15.20
2022-12-12T11:51:47.949Z,17.70
2022-12-12T11:52:47.676Z,15.00
2022-12-12T11:53:46.806Z,14.90
2022-12-12T11:54:47.091Z,15.30
2022-12-12T11:55:47.285Z,15.80
2022-12-12T11:56:50.933Z,15.60
2022-12-12T11:57:47.287Z,17.10
2022-12-12T11:58:47.459Z,16.10
2022-12-12T11:59:47.671Z,16.70
2022-12-12T12:00:47.715Z,15.20
2022-12-12T12:01:47.855Z,15.30
2022-12-12T12:02:48.047Z,15.90
2022-12-12T12:03:48.185Z,16.70
2022-12-12T12:04:52.923Z,15.10
2022-12-12T12:05:50.099Z,16.30
2022-12-12T12:06:49.718Z,14.90
2022-12-12T12:07:50.117Z,14.90
2022-12-12T12:08:48.894Z,16.20
2022-12-12T12:09:50.485Z,13.90
2022-12-12T12:10:54.612Z,13.80
2022-12-12T12:11:50.564Z,13.60
2022-12-12T12:12:49.370Z,15.30
2022-12-12T12:13:50.385Z,15.10
2022-12-12T12:14:50.836Z,13.80
2022-12-12T12:15:53.786Z,15.60
2022-12-12T12:16:50.708Z,13.40
2022-12-12T12:17:50.419Z,14.70
2022-12-12T12:18:51.968Z,15.10
2022-12-12T12:19:51.082Z,14.70
2022-12-12T12:20:51.278Z,14.30
2022-12-12T12:21:50.784Z,14.30
2022-12-12T12:22:51.575Z,12.60
2022-12-12T12:23:51.721Z,13.30
2022-12-12T12:24:52.701Z,14.10
2022-12-12T12:25:51.795Z,13.70
2022-12-12T12:26:51.703Z,13.00
2022-12-12T12:27:52.400Z,14.30
2022-12-12T12:28:52.284Z,13.10
2022-12-12T12:29:51.803Z,13.90
2022-12-12T12:30:51.868Z,14.20
2022-12-12T12:31:51.880Z,13.90
2022-12-12T12:32:51.961Z,13.00
2022-12-12T12:33:52.099Z,14.00
2022-12-12T12:34:52.970Z,13.90
2022-12-12T12:35:52.930Z,12.70
2022-12-12T12:36:52.438Z,13.60
2022-12-12T12:37:52.609Z,15.50
2022-12-12T12:38:52.711Z,14.10
2022-12-12T12:39:52.829Z,13.30
2022-12-12T12:40:52.942Z,13.10
2022-12-12T12:41:53.083Z,13.50
2022-12-12T12:42:53.997Z,13.90
2022-12-12T12:43:53.348Z,12.50
2022-12-12T12:44:53.468Z,13.90
2022-12-12T12:45:53.654Z,13.00
2022-12-12T12:46:53.729Z,12.70
2022-12-12T12:47:53.890Z,12.90
2022-12-12T12:48:54.010Z,13.60
2022-12-12T12:49:54.120Z,12.80
2022-12-12T12:50:54.228Z,13.00
2022-12-12T12:51:54.330Z,13.20
2022-12-12T12:52:54.529Z,13.00
2022-12-12T12:53:55.586Z,12.00
2022-12-12T12:54:54.757Z,13.10
2022-12-12T12:55:54.926Z,15.40
2022-12-12T12:56:55.097Z,13.00
2022-12-12T12:57:55.210Z,13.10
2022-12-12T12:58:55.440Z,13.00
2022-12-12T12:59:55.546Z,14.10
2022-12-12T13:00:55.675Z,13.50
2022-12-12T13:01:55.855Z,12.60
2022-12-12T13:02:56.000Z,11.80
2022-12-12T13:03:56.050Z,12.10
2022-12-12T13:04:56.163Z,12.40
2022-12-12T13:05:56.958Z,11.80
2022-12-12T13:06:56.518Z,13.40
2022-12-12T13:07:56.613Z,12.10
2022-12-12T13:08:56.968Z,12.50
2022-12-12T13:09:56.881Z,11.50
2022-12-12T13:10:56.974Z,12.40
2022-12-12T13:11:57.112Z,12.00
2022-12-12T13:12:57.193Z,11.50
2022-12-12T13:13:57.334Z,11.30
2022-12-12T13:14:57.492Z,13.10
2022-12-12T13:15:57.592Z,12.70
2022-12-12T13:16:57.695Z,12.40
2022-12-12T13:17:57.810Z,11.80
2022-12-12T13:18:57.914Z,11.20
2022-12-12T13:19:58.024Z,11.30
2022-12-12T13:20:58.216Z,11.90
2022-12-12T13:21:59.235Z,12.00
2022-12-12T13:22:58.421Z,12.20
2022-12-12T13:23:58.532Z,12.00
2022-12-12T13:25:00.197Z,12.90
2022-12-12T13:25:58.753Z,11.90
2022-12-12T13:26:59.816Z,11.70
2022-12-12T13:27:59.033Z,12.30
2022-12-12T13:28:59.173Z,12.60
2022-12-12T13:29:59.313Z,12.90
2022-12-12T13:30:59.496Z,13.00
2022-12-12T13:31:59.562Z,12.80
2022-12-12T13:32:59.672Z,13.40
2022-12-12T13:33:59.796Z,12.90
2022-12-12T13:34:59.944Z,12.70
2022-12-12T13:36:00.059Z,12.40
2022-12-12T13:37:00.173Z,13.60
2022-12-12T13:38:00.299Z,13.10
2022-12-12T13:39:00.421Z,12.60
2022-12-12T13:40:00.489Z,15.30
2022-12-12T13:41:00.599Z,11.80
2022-12-12T13:42:00.719Z,12.70
2022-12-12T13:43:08.759Z,12.60
2022-12-12T13:44:01.951Z,13.10
2022-12-12T13:45:01.088Z,13.60
2022-12-12T13:46:01.241Z,13.10
2022-12-12T13:47:01.458Z,13.00
2022-12-12T13:48:01.483Z,13.40
2022-12-12T13:49:01.577Z,13.50
2022-12-12T13:50:01.724Z,13.70
2022-12-12T13:51:01.876Z,13.00
2022-12-12T13:52:02.568Z,14.20
2022-12-12T13:53:02.118Z,13.40
2022-12-12T13:54:04.978Z,13.10
2022-12-12T13:55:03.398Z,12.70
2022-12-12T13:56:02.540Z,13.20
2022-12-12T13:57:02.696Z,12.80
2022-12-12T13:58:02.924Z,13.40
2022-12-12T13:59:02.987Z,13.60
2022-12-12T14:00:03.169Z,12.50
2022-12-12T14:01:03.283Z,13.90
2022-12-12T14:02:03.512Z,12.20
2022-12-12T14:03:03.530Z,12.90
2022-12-12T14:04:03.627Z,12.10
2022-12-12T14:05:03.708Z,13.70
2022-12-12T14:06:03.847Z,11.80
2022-12-12T14:07:03.976Z,13.80
2022-12-12T14:08:04.152Z,11.60
2022-12-12T14:09:04.491Z,12.00
2022-12-12T14:10:04.384Z,13.10
2022-12-12T14:11:04.484Z,13.80
2022-12-12T14:12:04.603Z,12.50
2022-12-12T14:13:04.755Z,13.30
2022-12-12T14:14:04.874Z,12.30
2022-12-12T14:15:05.032Z,11.40
2022-12-12T14:16:05.251Z,13.30
2022-12-12T14:17:05.271Z,12.00
2022-12-12T14:18:05.398Z,12.10
2022-12-12T14:19:05.463Z,14.40
2022-12-12T14:20:05.637Z,13.80
2022-12-12T14:21:05.766Z,11.60
2022-12-12T14:22:05.893Z,12.00
2022-12-12T14:23:06.055Z,13.00
2022-12-12T14:24:06.173Z,12.30
2022-12-12T14:25:06.347Z,12.80
2022-12-12T14:26:06.443Z,11.40
2022-12-12T14:27:06.585Z,13.30
2022-12-12T14:28:07.661Z,12.80
2022-12-12T14:29:06.804Z,12.50
2022-12-12T14:30:06.930Z,12.10
2022-12-12T14:31:07.135Z,15.80
2022-12-12T14:32:07.271Z,12.80
2022-12-12T14:33:07.323Z,14.00
2022-12-12T14:34:07.441Z,13.80
2022-12-12T14:35:07.592Z,15.40
2022-12-12T14:36:07.806Z,15.60
2022-12-12T14:37:07.823Z,14.90
2022-12-12T14:38:07.953Z,14.60
2022-12-12T14:39:08.094Z,15.60
2022-12-12T14:40:08.317Z,14.40
2022-12-12T14:41:08.363Z,15.40
2022-12-12T14:42:08.470Z,13.90
2022-12-12T14:43:20.178Z,14.00
2022-12-12T14:44:37.632Z,16.40
2022-12-12T14:45:09.850Z,14.30
2022-12-12T14:46:09.059Z,14.00
2022-12-12T14:47:09.156Z,16.20
2022-12-12T14:48:09.311Z,13.80
2022-12-12T14:49:09.429Z,16.20
2022-12-12T14:50:10.637Z,15.50
2022-12-12T14:51:09.674Z,13.90
2022-12-12T14:52:09.758Z,15.40
2022-12-12T14:53:09.964Z,17.50
2022-12-12T14:54:10.039Z,15.80
2022-12-12T14:55:10.158Z,13.80
2022-12-12T14:56:10.328Z,14.10
2022-12-12T14:57:10.442Z,15.20
2022-12-12T14:58:10.503Z,16.00
2022-12-12T14:59:10.620Z,16.90
2022-12-12T15:00:10.746Z,13.90
2022-12-12T15:01:10.891Z,14.30
2022-12-12T15:02:11.096Z,15.70
2022-12-12T15:03:11.221Z,14.90
2022-12-12T15:04:11.297Z,12.60
2022-12-12T15:05:11.427Z,14.60
2022-12-12T15:06:11.599Z,15.60
2022-12-12T15:07:11.727Z,14.70
2022-12-12T15:08:11.901Z,15.50
2022-12-12T15:09:12.024Z,15.00
2022-12-12T15:10:13.754Z,13.80
2022-12-12T15:11:12.267Z,13.70
2022-12-12T15:12:12.409Z,13.70
2022-12-12T15:13:12.536Z,14.80
2022-12-12T15:14:12.647Z,17.30
2022-12-12T15:15:12.775Z,13.00
2022-12-12T15:16:12.930Z,14.20
2022-12-12T15:17:12.996Z,14.80
2022-12-12T15:18:13.170Z,14.40
2022-12-12T15:19:13.266Z,13.30
2022-12-12T15:20:13.633Z,14.80
2022-12-12T15:21:13.559Z,14.70
2022-12-12T15:22:13.717Z,14.90
2022-12-12T15:23:13.825Z,13.80
2022-12-12T15:24:13.934Z,14.30
2022-12-12T15:25:14.028Z,15.60
2022-12-12T15:26:14.195Z,15.90
2022-12-12T15:27:14.323Z,14.00
2022-12-12T15:28:14.471Z,16.30
2022-12-12T15:29:14.666Z,14.50
2022-12-12T15:30:14.954Z,15.60
2022-12-12T15:31:15.018Z,13.50
2022-12-12T15:32:15.173Z,15.10
2022-12-12T15:33:15.772Z,16.50
2022-12-12T15:34:17.242Z,14.90
2022-12-12T15:35:15.503Z,14.50
2022-12-12T15:36:15.642Z,13.90
2022-12-12T15:37:15.814Z,14.80
2022-12-12T15:38:15.942Z,15.30
2022-12-12T15:39:16.031Z,15.10
2022-12-12T15:40:16.406Z,15.30
2022-12-12T15:41:16.345Z,15.80
2022-12-12T15:42:16.515Z,15.40
2022-12-12T15:43:16.640Z,14.60
2022-12-12T15:44:16.813Z,15.40
2022-12-12T15:45:16.900Z,15.70
2022-12-12T15:46:17.147Z,14.70
2022-12-12T15:47:18.120Z,13.50
2022-12-12T15:48:17.300Z,15.50
2022-12-12T15:49:17.443Z,16.10
2022-12-12T15:50:17.574Z,15.00
2022-12-12T15:51:24.292Z,14.80
2022-12-12T15:52:18.891Z,16.00
2022-12-12T15:53:18.032Z,14.70
2022-12-12T15:54:18.153Z,16.20
2022-12-12T15:55:18.319Z,14.20
2022-12-12T15:56:18.458Z,16.00
2022-12-12T15:57:18.647Z,15.00
2022-12-12T15:58:26.454Z,14.50
2022-12-12T15:59:19.818Z,14.30
2022-12-12T16:00:18.928Z,15.40
2022-12-12T16:01:20.281Z,15.40
2022-12-12T16:12:51.290Z,14.00
2022-12-12T16:13:51.418Z,16.20
2022-12-12T16:14:51.519Z,16.20
2022-12-12T16:15:51.652Z,14.70
2022-12-12T16:16:51.778Z,15.80
2022-12-12T16:17:51.878Z,15.90
2022-12-12T16:18:51.981Z,14.50
2022-12-12T16:19:52.130Z,18.30
2022-12-12T16:20:52.286Z,17.20
2022-12-12T16:21:52.458Z,14.40
2022-12-12T16:22:52.596Z,15.00
2022-12-12T16:23:52.757Z,16.20
2022-12-12T16:24:52.856Z,15.90
2022-12-12T16:25:52.996Z,16.30
2022-12-12T16:26:53.141Z,15.80
2022-12-12T16:27:53.288Z,13.80
2022-12-12T16:28:53.500Z,16.20
2022-12-12T16:29:53.584Z,15.20
2022-12-12T16:30:53.715Z,15.20
2022-12-12T16:31:53.878Z,14.80
2022-12-12T16:32:53.998Z,15.30
2022-12-12T16:33:54.155Z,17.30
2022-12-12T16:34:54.304Z,15.60
2022-12-12T16:35:54.365Z,16.30
2022-12-12T16:36:54.515Z,14.90
2022-12-12T16:37:54.673Z,17.40
2022-12-12T16:38:54.802Z,14.50
2022-12-12T16:39:54.968Z,15.60
2022-12-12T16:40:55.145Z,16.40
2022-12-12T16:41:55.207Z,15.80
2022-12-12T16:42:55.372Z,15.50
2022-12-12T16:43:55.508Z,16.40
2022-12-12T16:44:55.647Z,17.10
2022-12-12T16:45:55.819Z,15.60
2022-12-12T16:46:55.932Z,14.90
2022-12-12T16:47:56.097Z,14.70
2022-12-12T16:48:56.245Z,15.90
2022-12-12T16:49:56.409Z,14.70
2022-12-12T16:50:56.492Z,15.80
2022-12-12T16:51:56.642Z,15.90
2022-12-12T16:52:56.729Z,16.20
2022-12-12T16:53:56.882Z,16.40
2022-12-12T16:54:57.059Z,17.30
2022-12-12T16:55:57.171Z,16.30
2022-12-12T16:56:57.433Z,16.30
2022-12-12T16:57:57.515Z,16.40
2022-12-12T16:58:57.585Z,15.40
2022-12-12T16:59:57.743Z,16.60
2022-12-12T17:00:57.923Z,16.30
2022-12-12T17:01:58.059Z,15.30
2022-12-12T17:02:58.189Z,15.20
2022-12-12T17:03:58.345Z,15.90
2022-12-12T17:04:58.439Z,16.00
2022-12-12T17:05:58.627Z,17.60
2022-12-12T17:06:58.718Z,14.90
2022-12-12T17:07:58.930Z,15.10
2022-12-12T17:08:59.008Z,16.60
2022-12-12T17:10:00.136Z,17.00
2022-12-12T17:11:09.467Z,14.20
2022-12-12T17:12:00.447Z,16.20
2022-12-12T17:12:59.548Z,15.10
2022-12-12T17:13:59.717Z,15.30
2022-12-12T17:14:59.877Z,15.80